Palmerston North (NZPM)

Aerodrome — Elev 151
New Zealand
S040.19.14.002 E175.37.00.998
Loading chart...

NZOH_CTR (or when off watch NZCH-T_CTR) provides approach/departure control for Palmerston North.  Contact NZOH_CTR prior to entering controlled airspace or IMC.  When NZPM_TWR is on watch they will co-ordinate the handoff between the two positions for you.

Current Weather

NZPM 230100Z 27005KT 230V320 27KM NCD 25/13 Q1026 RMK AUTO VATSIM USE ONLY

Published 42 minutes ago

Airport Activity

Loading chart...
Loading chart...

Positions

CallsignRadio Name / Freq / Voice Room / TypeFrequencyVoice RoomType
NZOH_CTR Ohakea Control
125.100
nzoh_ctr
125.100nzoh_ctr
NZPM_TWR Palmerston North Tower
120.600
nzpm_twr
120.600nzpm_twr
NZPM_ATIS Palmerston North ATIS
129.700
nzpm_atis
129.700nzpm_atis
UNICOM NZZC UNICOM
122.800
unicom_nzzc
122.800unicom_nzzc

Charts